JBU2279 KFLL-KDFW
Flight info
| Callsign | JBU2279 |
|---|---|
| Flight time | 2h 57m |
| Altitude | 34000 |
| Route | BNICE2 DOLIE Y280 ROZZI/N0464F360 Y280 REDFN Q105 HRV J58 AEX PNUTS BEREE3 |
| Aircraft | A320/M-SDE3FGHIRWY/LB1 |
Departure
| Time | 2026-05-04 20:23 |
|---|---|
| Airport | Fort Lauderdale Hollywood International Airport (KFLL) |
Arrival
| Time | 2026-05-04 23:21 |
|---|---|
| Airport | Dallas Fort Worth International Airport (KDFW) |
| Time | Latitude | Longitude | Altitude | Speed | Heading |
|---|---|---|---|---|---|
| 2026-05-04 19:54 | 26.06905 | -80.14584 | 18 ft | 0 kts | 35° |
| 2026-05-04 20:08 | 26.06895 | -80.14593 | 16 ft | 4 kts | 35° |
| 2026-05-04 20:08 | 26.06875 | -80.14608 | 16 ft | 1 kts | 35° |
| 2026-05-04 20:08 | 26.06855 | -80.14618 | 17 ft | 4 kts | 349° |
| 2026-05-04 20:08 | 26.06834 | -80.14606 | 19 ft | 4 kts | 314° |
| 2026-05-04 20:09 | 26.06820 | -80.14583 | 17 ft | 4 kts | 278° |
| 2026-05-04 20:09 | 26.06819 | -80.14558 | 15 ft | 4 kts | 270° |
| 2026-05-04 20:09 | 26.06819 | -80.14532 | 16 ft | 0 kts | 270° |
| 2026-05-04 20:15 | 26.06819 | -80.14546 | 15 ft | 7 kts | 270° |
| 2026-05-04 20:15 | 26.06831 | -80.14601 | 19 ft | 7 kts | 305° |
| 2026-05-04 20:15 | 26.06862 | -80.14636 | 16 ft | 6 kts | 315° |
| 2026-05-04 20:15 | 26.06895 | -80.14665 | 15 ft | 7 kts | 325° |
| 2026-05-04 20:16 | 26.06933 | -80.14698 | 16 ft | 6 kts | 320° |
| 2026-05-04 20:16 | 26.06966 | -80.14731 | 17 ft | 9 kts | 318° |
| 2026-05-04 20:16 | 26.07039 | -80.14808 | 17 ft | 15 kts | 315° |
| 2026-05-04 20:16 | 26.07112 | -80.14888 | 16 ft | 14 kts | 316° |
| 2026-05-04 20:17 | 26.07167 | -80.14967 | 16 ft | 12 kts | 269° |
| 2026-05-04 20:17 | 26.07147 | -80.15046 | 16 ft | 10 kts | 271° |
| 2026-05-04 20:17 | 26.07185 | -80.15093 | 16 ft | 8 kts | 311° |
| 2026-05-04 20:17 | 26.07262 | -80.15128 | 16 ft | 19 kts | 360° |
| 2026-05-04 20:18 | 26.07390 | -80.15126 | 16 ft | 18 kts | 1° |
| 2026-05-04 20:18 | 26.07493 | -80.15148 | 16 ft | 11 kts | 299° |
| 2026-05-04 20:18 | 26.07490 | -80.15206 | 16 ft | 7 kts | 275° |
| 2026-05-04 20:18 | 26.07490 | -80.15312 | 15 ft | 24 kts | 269° |
| 2026-05-04 20:19 | 26.07490 | -80.15499 | 16 ft | 24 kts | 271° |
| 2026-05-04 20:19 | 26.07493 | -80.15680 | 16 ft | 23 kts | 271° |
| 2026-05-04 20:19 | 26.07493 | -80.15852 | 16 ft | 22 kts | 269° |
| 2026-05-04 20:19 | 26.07494 | -80.16016 | 16 ft | 21 kts | 271° |
| 2026-05-04 20:20 | 26.07496 | -80.16171 | 16 ft | 19 kts | 271° |
| 2026-05-04 20:20 | 26.07496 | -80.16317 | 16 ft | 18 kts | 269° |
| 2026-05-04 20:20 | 26.07498 | -80.16454 | 16 ft | 17 kts | 272° |
| 2026-05-04 20:20 | 26.07533 | -80.16555 | 16 ft | 13 kts | 342° |
| 2026-05-04 20:21 | 26.07590 | -80.16561 | 17 ft | 0 kts | 358° |
| 2026-05-04 20:21 | 26.07695 | -80.16481 | 19 ft | 0 kts | 91° |
| 2026-05-04 20:22 | 26.07694 | -80.16351 | 20 ft | 48 kts | 90° |
| 2026-05-04 20:22 | 26.07691 | -80.15741 | 17 ft | 107 kts | 92° |
| 2026-05-04 20:23 | 26.07677 | -80.14756 | 30 ft | 148 kts | 89° |
| 2026-05-04 20:23 | 26.07668 | -80.13594 | 516 ft | 151 kts | 88° |
| 2026-05-04 20:23 | 26.07669 | -80.12428 | 1146 ft | 152 kts | 85° |
| 2026-05-04 20:23 | 26.07666 | -80.11237 | 1721 ft | 159 kts | 84° |
| 2026-05-04 20:24 | 26.07653 | -80.09931 | 2165 ft | 180 kts | 86° |
| 2026-05-04 20:24 | 26.07847 | -80.08459 | 2570 ft | 207 kts | 67° |
| 2026-05-04 20:24 | 26.08689 | -80.07037 | 2951 ft | 239 kts | 42° |
| 2026-05-04 20:24 | 26.10243 | -80.06260 | 3751 ft | 251 kts | 15° |
| 2026-05-04 20:25 | 26.11955 | -80.05763 | 4757 ft | 257 kts | 15° |
| 2026-05-04 20:25 | 26.13685 | -80.05181 | 5580 ft | 267 kts | 16° |
| 2026-05-04 20:25 | 26.15515 | -80.04799 | 6551 ft | 271 kts | 355° |
| 2026-05-04 20:25 | 26.17352 | -80.05284 | 7361 ft | 275 kts | 339° |
| 2026-05-04 20:26 | 26.19161 | -80.05994 | 8170 ft | 277 kts | 336° |
| 2026-05-04 20:26 | 26.20921 | -80.06863 | 8868 ft | 277 kts | 323° |
| 2026-05-04 20:26 | 26.22367 | -80.08249 | 9579 ft | 275 kts | 306° |
| 2026-05-04 20:26 | 26.23374 | -80.10040 | 10247 ft | 273 kts | 290° |
| 2026-05-04 20:27 | 26.24097 | -80.12063 | 10495 ft | 292 kts | 289° |
| 2026-05-04 20:27 | 26.24868 | -80.14247 | 10619 ft | 313 kts | 289° |
| 2026-05-04 20:27 | 26.25532 | -80.16597 | 10740 ft | 331 kts | 280° |
| 2026-05-04 20:27 | 26.25926 | -80.19194 | 10891 ft | 348 kts | 278° |
| 2026-05-04 20:28 | 26.26308 | -80.21887 | 11344 ft | 355 kts | 277° |
| 2026-05-04 20:28 | 26.26693 | -80.24607 | 11915 ft | 357 kts | 277° |
| 2026-05-04 20:28 | 26.27083 | -80.27351 | 12506 ft | 359 kts | 277° |
| 2026-05-04 20:28 | 26.27475 | -80.30110 | 13096 ft | 361 kts | 277° |
| 2026-05-04 20:29 | 26.27870 | -80.32883 | 13693 ft | 363 kts | 277° |
| 2026-05-04 20:29 | 26.28266 | -80.35666 | 14225 ft | 365 kts | 277° |
| 2026-05-04 20:29 | 26.28665 | -80.38468 | 14732 ft | 367 kts | 277° |
| 2026-05-04 20:29 | 26.29066 | -80.41287 | 15237 ft | 369 kts | 277° |
| 2026-05-04 20:30 | 26.29465 | -80.44086 | 15746 ft | 372 kts | 277° |
| 2026-05-04 20:30 | 26.29870 | -80.46939 | 16256 ft | 374 kts | 277° |
| 2026-05-04 20:30 | 26.30275 | -80.49810 | 16768 ft | 376 kts | 277° |
| 2026-05-04 20:30 | 26.30683 | -80.52697 | 17286 ft | 378 kts | 277° |
| 2026-05-04 20:31 | 26.31094 | -80.55607 | 17800 ft | 381 kts | 277° |
| 2026-05-04 20:31 | 26.31505 | -80.58530 | 18303 ft | 384 kts | 277° |
| 2026-05-04 20:31 | 26.31918 | -80.61480 | 18723 ft | 386 kts | 277° |
| 2026-05-04 20:31 | 26.32325 | -80.64401 | 19131 ft | 388 kts | 277° |
| 2026-05-04 20:32 | 26.32740 | -80.67383 | 19539 ft | 390 kts | 277° |
| 2026-05-04 20:32 | 26.33158 | -80.70377 | 19938 ft | 392 kts | 277° |
| 2026-05-04 20:32 | 26.33579 | -80.73383 | 20327 ft | 395 kts | 277° |
| 2026-05-04 20:32 | 26.34001 | -80.76419 | 20709 ft | 397 kts | 277° |
| 2026-05-04 20:33 | 26.34421 | -80.79456 | 21076 ft | 399 kts | 277° |
| 2026-05-04 20:33 | 26.34843 | -80.82520 | 21439 ft | 400 kts | 277° |
| 2026-05-04 20:33 | 26.35268 | -80.85591 | 21789 ft | 403 kts | 277° |
| 2026-05-04 20:33 | 26.35765 | -80.88671 | 22113 ft | 406 kts | 282° |
| 2026-05-04 20:34 | 26.36733 | -80.91650 | 22438 ft | 412 kts | 292° |
| 2026-05-04 20:34 | 26.38195 | -80.94366 | 22767 ft | 418 kts | 303° |
| 2026-05-04 20:34 | 26.40155 | -80.96799 | 23084 ft | 426 kts | 312° |
| 2026-05-04 20:34 | 26.42318 | -80.99068 | 23388 ft | 428 kts | 312° |
| 2026-05-04 20:35 | 26.44490 | -81.01340 | 23675 ft | 429 kts | 312° |
| 2026-05-04 20:35 | 26.46670 | -81.03623 | 23928 ft | 431 kts | 312° |
| 2026-05-04 20:35 | 26.48858 | -81.05920 | 24203 ft | 431 kts | 312° |
| 2026-05-04 20:35 | 26.51038 | -81.08210 | 24598 ft | 429 kts | 311° |
| 2026-05-04 20:36 | 26.53206 | -81.10487 | 25006 ft | 427 kts | 311° |
| 2026-05-04 20:36 | 26.55359 | -81.12758 | 25433 ft | 425 kts | 311° |
| 2026-05-04 20:36 | 26.57476 | -81.14992 | 25855 ft | 423 kts | 311° |
| 2026-05-04 20:36 | 26.59607 | -81.17243 | 26332 ft | 421 kts | 311° |
| 2026-05-04 20:37 | 26.61726 | -81.19483 | 26778 ft | 419 kts | 311° |
| 2026-05-04 20:37 | 26.63841 | -81.21720 | 27228 ft | 417 kts | 311° |
| 2026-05-04 20:37 | 26.65940 | -81.23944 | 27675 ft | 415 kts | 311° |
| 2026-05-04 20:37 | 26.68029 | -81.26162 | 28135 ft | 413 kts | 311° |
| 2026-05-04 20:38 | 26.70107 | -81.28373 | 28600 ft | 411 kts | 311° |
| 2026-05-04 20:38 | 26.72175 | -81.30573 | 29062 ft | 410 kts | 311° |
| 2026-05-04 20:38 | 26.74210 | -81.32737 | 29522 ft | 408 kts | 311° |
| 2026-05-04 20:38 | 26.76260 | -81.34920 | 29998 ft | 406 kts | 310° |
| 2026-05-04 20:39 | 26.78304 | -81.37095 | 30393 ft | 405 kts | 310° |
| 2026-05-04 20:39 | 26.80342 | -81.39264 | 30761 ft | 404 kts | 310° |
| 2026-05-04 20:39 | 26.82375 | -81.41431 | 31123 ft | 403 kts | 310° |
| 2026-05-04 20:39 | 26.84401 | -81.43594 | 31476 ft | 403 kts | 310° |
| 2026-05-04 20:40 | 26.86427 | -81.45757 | 31831 ft | 402 kts | 310° |
| 2026-05-04 20:40 | 26.88451 | -81.47916 | 32182 ft | 401 kts | 310° |
| 2026-05-04 20:40 | 26.90442 | -81.50044 | 32528 ft | 401 kts | 310° |
| 2026-05-04 20:40 | 26.92458 | -81.52204 | 32925 ft | 400 kts | 309° |
| 2026-05-04 20:41 | 26.94462 | -81.54352 | 33310 ft | 398 kts | 309° |
| 2026-05-04 20:41 | 26.96460 | -81.56497 | 33694 ft | 398 kts | 309° |
| 2026-05-04 20:41 | 26.98463 | -81.58643 | 33978 ft | 398 kts | 309° |
| 2026-05-04 20:41 | 27.00472 | -81.60797 | 34028 ft | 403 kts | 309° |
| 2026-05-04 20:42 | 27.04616 | -81.65246 | 34029 ft | 417 kts | 309° |
| 2026-05-04 20:42 | 27.08811 | -81.69744 | 34036 ft | 421 kts | 309° |
| 2026-05-04 20:43 | 27.13046 | -81.74282 | 34040 ft | 421 kts | 309° |
| 2026-05-04 20:43 | 27.17259 | -81.78808 | 34035 ft | 422 kts | 309° |
| 2026-05-04 20:44 | 27.21493 | -81.83362 | 34042 ft | 421 kts | 309° |
| 2026-05-04 20:44 | 27.25699 | -81.87945 | 34075 ft | 419 kts | 306° |
| 2026-05-04 20:45 | 27.28738 | -81.93336 | 34066 ft | 404 kts | 287° |
| 2026-05-04 20:45 | 27.30120 | -81.99352 | 34049 ft | 400 kts | 278° |
| 2026-05-04 20:46 | 27.31267 | -82.05477 | 34043 ft | 400 kts | 279° |
| 2026-05-04 20:46 | 27.32420 | -82.11601 | 34038 ft | 401 kts | 279° |
| 2026-05-04 20:47 | 27.33570 | -82.17731 | 34035 ft | 401 kts | 279° |
| 2026-05-04 20:47 | 27.34707 | -82.23824 | 34032 ft | 401 kts | 279° |
| 2026-05-04 20:48 | 27.35843 | -82.29960 | 34030 ft | 401 kts | 278° |
| 2026-05-04 20:48 | 27.36970 | -82.36090 | 34032 ft | 401 kts | 278° |
| 2026-05-04 20:49 | 27.38100 | -82.42231 | 34037 ft | 401 kts | 279° |
| 2026-05-04 20:49 | 27.39236 | -82.48381 | 34033 ft | 402 kts | 279° |
| 2026-05-04 20:50 | 27.40368 | -82.54539 | 34026 ft | 402 kts | 279° |
| 2026-05-04 20:50 | 27.41509 | -82.60697 | 34026 ft | 402 kts | 279° |
| 2026-05-04 20:51 | 27.42666 | -82.66865 | 34033 ft | 403 kts | 279° |
| 2026-05-04 20:51 | 27.43828 | -82.73073 | 34032 ft | 403 kts | 279° |
| 2026-05-04 20:52 | 27.44971 | -82.79239 | 34038 ft | 403 kts | 279° |
| 2026-05-04 20:52 | 27.46115 | -82.85388 | 34031 ft | 404 kts | 279° |
| 2026-05-04 20:53 | 27.47266 | -82.91614 | 34023 ft | 404 kts | 279° |
| 2026-05-04 20:53 | 27.48403 | -82.97772 | 34025 ft | 405 kts | 279° |
| 2026-05-04 20:54 | 27.49544 | -83.03979 | 34028 ft | 405 kts | 279° |
| 2026-05-04 20:54 | 27.50684 | -83.10195 | 34030 ft | 405 kts | 279° |
| 2026-05-04 20:55 | 27.51824 | -83.16415 | 34035 ft | 406 kts | 280° |
| 2026-05-04 20:55 | 27.52954 | -83.22600 | 34036 ft | 406 kts | 280° |
| 2026-05-04 20:56 | 27.54089 | -83.28834 | 34039 ft | 406 kts | 280° |
| 2026-05-04 20:56 | 27.55222 | -83.35076 | 34043 ft | 406 kts | 280° |
| 2026-05-04 20:57 | 27.56354 | -83.41316 | 34042 ft | 406 kts | 280° |
| 2026-05-04 20:57 | 27.57481 | -83.47548 | 34045 ft | 406 kts | 280° |
| 2026-05-04 20:58 | 27.58604 | -83.53785 | 34041 ft | 406 kts | 281° |
| 2026-05-04 20:58 | 27.59715 | -83.59972 | 34046 ft | 406 kts | 281° |
| 2026-05-04 20:59 | 27.60832 | -83.66211 | 34051 ft | 405 kts | 281° |
| 2026-05-04 20:59 | 27.61944 | -83.72441 | 34053 ft | 406 kts | 281° |
| 2026-05-04 21:00 | 27.63054 | -83.78677 | 34058 ft | 406 kts | 281° |
| 2026-05-04 21:00 | 27.64163 | -83.84916 | 34060 ft | 406 kts | 281° |
| 2026-05-04 21:01 | 27.65271 | -83.91157 | 34054 ft | 406 kts | 281° |
| 2026-05-04 21:01 | 27.66370 | -83.97356 | 34062 ft | 405 kts | 282° |
| 2026-05-04 21:02 | 27.67467 | -84.03579 | 34063 ft | 404 kts | 282° |
| 2026-05-04 21:02 | 27.68558 | -84.09791 | 34065 ft | 404 kts | 282° |
| 2026-05-04 21:03 | 27.69648 | -84.16000 | 34061 ft | 403 kts | 282° |
| 2026-05-04 21:03 | 27.70729 | -84.22206 | 34058 ft | 403 kts | 282° |
| 2026-05-04 21:04 | 27.71800 | -84.28367 | 34061 ft | 402 kts | 282° |
| 2026-05-04 21:04 | 27.72878 | -84.34559 | 34059 ft | 402 kts | 283° |
| 2026-05-04 21:05 | 27.73944 | -84.40735 | 34059 ft | 401 kts | 283° |
| 2026-05-04 21:05 | 27.75014 | -84.46909 | 34061 ft | 400 kts | 283° |
| 2026-05-04 21:06 | 27.76081 | -84.53078 | 34062 ft | 400 kts | 283° |
| 2026-05-04 21:06 | 27.77134 | -84.59207 | 34061 ft | 400 kts | 283° |
| 2026-05-04 21:07 | 27.78198 | -84.65374 | 34062 ft | 400 kts | 283° |
| 2026-05-04 21:07 | 27.79252 | -84.71534 | 34055 ft | 399 kts | 284° |
| 2026-05-04 21:08 | 27.80294 | -84.77685 | 34059 ft | 398 kts | 284° |
| 2026-05-04 21:08 | 27.81327 | -84.83787 | 34063 ft | 398 kts | 284° |
| 2026-05-04 21:09 | 27.82370 | -84.89919 | 34064 ft | 398 kts | 284° |
| 2026-05-04 21:09 | 27.83413 | -84.96054 | 34066 ft | 397 kts | 284° |
| 2026-05-04 21:10 | 27.84449 | -85.02184 | 34063 ft | 397 kts | 284° |
| 2026-05-04 21:10 | 27.85469 | -85.08264 | 34056 ft | 395 kts | 285° |
| 2026-05-04 21:11 | 27.86499 | -85.14349 | 34072 ft | 393 kts | 285° |
| 2026-05-04 21:11 | 27.87513 | -85.20415 | 34070 ft | 392 kts | 285° |
| 2026-05-04 21:12 | 27.88615 | -85.26429 | 34071 ft | 388 kts | 291° |
| 2026-05-04 21:12 | 27.90355 | -85.32188 | 34068 ft | 387 kts | 292° |
| 2026-05-04 21:13 | 27.92089 | -85.37904 | 34064 ft | 387 kts | 292° |
| 2026-05-04 21:13 | 27.93826 | -85.43660 | 34052 ft | 386 kts | 292° |
| 2026-05-04 21:14 | 27.95560 | -85.49404 | 34055 ft | 385 kts | 293° |
| 2026-05-04 21:14 | 27.97289 | -85.55134 | 34059 ft | 384 kts | 293° |
| 2026-05-04 21:15 | 27.99000 | -85.60811 | 34061 ft | 384 kts | 292° |
| 2026-05-04 21:15 | 28.00719 | -85.66528 | 34066 ft | 383 kts | 292° |
| 2026-05-04 21:16 | 28.02429 | -85.72216 | 34062 ft | 381 kts | 292° |
| 2026-05-04 21:16 | 28.04132 | -85.77901 | 34061 ft | 381 kts | 292° |
| 2026-05-04 21:17 | 28.05815 | -85.83554 | 34060 ft | 381 kts | 292° |
| 2026-05-04 21:17 | 28.07512 | -85.89248 | 34054 ft | 382 kts | 292° |
| 2026-05-04 21:18 | 28.09210 | -85.94947 | 34054 ft | 382 kts | 292° |
| 2026-05-04 21:18 | 28.10903 | -86.00645 | 34056 ft | 382 kts | 292° |
| 2026-05-04 21:19 | 28.12597 | -86.06354 | 34054 ft | 382 kts | 292° |
| 2026-05-04 21:19 | 28.14285 | -86.12022 | 34057 ft | 382 kts | 292° |
| 2026-05-04 21:20 | 28.15976 | -86.17728 | 34053 ft | 382 kts | 292° |
| 2026-05-04 21:20 | 28.17659 | -86.23433 | 34046 ft | 382 kts | 292° |
| 2026-05-04 21:21 | 28.19340 | -86.29139 | 34047 ft | 382 kts | 292° |
| 2026-05-04 21:21 | 28.21007 | -86.34805 | 34050 ft | 382 kts | 292° |
| 2026-05-04 21:22 | 28.22686 | -86.40513 | 34054 ft | 381 kts | 292° |
| 2026-05-04 21:22 | 28.24361 | -86.46222 | 34057 ft | 381 kts | 292° |
| 2026-05-04 21:23 | 28.26032 | -86.51936 | 34065 ft | 382 kts | 292° |
| 2026-05-04 21:23 | 28.27692 | -86.57616 | 34051 ft | 382 kts | 291° |
| 2026-05-04 21:24 | 28.29357 | -86.63329 | 34050 ft | 381 kts | 291° |
| 2026-05-04 21:24 | 28.31025 | -86.69041 | 34053 ft | 381 kts | 291° |
| 2026-05-04 21:25 | 28.32697 | -86.74749 | 34053 ft | 381 kts | 291° |
| 2026-05-04 21:25 | 28.34365 | -86.80447 | 34082 ft | 381 kts | 291° |
| 2026-05-04 21:26 | 28.36023 | -86.86125 | 34071 ft | 380 kts | 292° |
| 2026-05-04 21:26 | 28.37679 | -86.91787 | 34070 ft | 380 kts | 292° |
| 2026-05-04 21:27 | 28.39342 | -86.97500 | 34065 ft | 379 kts | 291° |
| 2026-05-04 21:27 | 28.40998 | -87.03178 | 34067 ft | 379 kts | 291° |
| 2026-05-04 21:28 | 28.42653 | -87.08859 | 34066 ft | 379 kts | 291° |
| 2026-05-04 21:28 | 28.44026 | -87.13605 | 34061 ft | 379 kts | 291° |
| 2026-05-04 21:29 | 28.45938 | -87.20216 | 34061 ft | 378 kts | 291° |
| 2026-05-04 21:29 | 28.47571 | -87.25896 | 34063 ft | 378 kts | 291° |
| 2026-05-04 21:30 | 28.49198 | -87.31533 | 34061 ft | 378 kts | 291° |
| 2026-05-04 21:30 | 28.50580 | -87.36314 | 34052 ft | 378 kts | 291° |
| 2026-05-04 21:31 | 28.53027 | -87.44822 | 34066 ft | 377 kts | 291° |
| 2026-05-04 21:32 | 28.54654 | -87.50480 | 34066 ft | 377 kts | 291° |
| 2026-05-04 21:32 | 28.56268 | -87.56127 | 34069 ft | 377 kts | 291° |
| 2026-05-04 21:33 | 28.57903 | -87.61869 | 34056 ft | 377 kts | 291° |
| 2026-05-04 21:33 | 28.59524 | -87.67549 | 34061 ft | 377 kts | 291° |
| 2026-05-04 21:34 | 28.61141 | -87.73215 | 34041 ft | 377 kts | 291° |
| 2026-05-04 21:34 | 28.62755 | -87.78892 | 34050 ft | 377 kts | 291° |
| 2026-05-04 21:35 | 28.64350 | -87.84537 | 34048 ft | 377 kts | 291° |
| 2026-05-04 21:35 | 28.65956 | -87.90221 | 34092 ft | 376 kts | 291° |
| 2026-05-04 21:36 | 28.67563 | -87.95881 | 34075 ft | 375 kts | 291° |
| 2026-05-04 21:36 | 28.69154 | -88.01539 | 34070 ft | 375 kts | 291° |
| 2026-05-04 21:37 | 28.70731 | -88.07153 | 34066 ft | 374 kts | 291° |
| 2026-05-04 21:37 | 28.72328 | -88.12798 | 34050 ft | 374 kts | 291° |
| 2026-05-04 21:38 | 28.73913 | -88.18440 | 34057 ft | 374 kts | 291° |
| 2026-05-04 21:38 | 28.75492 | -88.24082 | 34058 ft | 374 kts | 291° |
| 2026-05-04 21:39 | 28.77067 | -88.29720 | 34050 ft | 374 kts | 291° |
| 2026-05-04 21:39 | 28.78641 | -88.35360 | 34051 ft | 374 kts | 291° |
| 2026-05-04 21:40 | 28.80214 | -88.41006 | 34057 ft | 374 kts | 291° |
| 2026-05-04 21:40 | 28.81776 | -88.46613 | 34057 ft | 373 kts | 291° |
| 2026-05-04 21:41 | 28.83349 | -88.52264 | 34034 ft | 374 kts | 291° |
| 2026-05-04 21:41 | 28.84916 | -88.57913 | 34042 ft | 374 kts | 291° |
| 2026-05-04 21:42 | 28.86477 | -88.63573 | 34045 ft | 374 kts | 291° |
| 2026-05-04 21:42 | 28.88158 | -88.69176 | 34040 ft | 372 kts | 298° |
| 2026-05-04 21:43 | 28.91110 | -88.73913 | 34048 ft | 371 kts | 309° |
| 2026-05-04 21:43 | 28.94483 | -88.78368 | 34052 ft | 371 kts | 309° |
| 2026-05-04 21:44 | 28.97853 | -88.82836 | 34088 ft | 370 kts | 309° |
| 2026-05-04 21:44 | 29.01204 | -88.87293 | 34073 ft | 370 kts | 309° |
| 2026-05-04 21:45 | 29.04527 | -88.91716 | 34058 ft | 370 kts | 309° |
| 2026-05-04 21:45 | 29.07901 | -88.96211 | 34065 ft | 369 kts | 309° |
| 2026-05-04 21:46 | 29.11240 | -89.00670 | 34067 ft | 369 kts | 309° |
| 2026-05-04 21:46 | 29.14650 | -89.05216 | 34067 ft | 369 kts | 309° |
| 2026-05-04 21:47 | 29.17970 | -89.09651 | 34071 ft | 369 kts | 309° |
| 2026-05-04 21:47 | 29.21329 | -89.14142 | 34069 ft | 369 kts | 309° |
| 2026-05-04 21:48 | 29.24661 | -89.18604 | 34095 ft | 369 kts | 309° |
| 2026-05-04 21:48 | 29.27994 | -89.23070 | 34090 ft | 368 kts | 309° |
| 2026-05-04 21:49 | 29.31294 | -89.27508 | 34075 ft | 368 kts | 309° |
| 2026-05-04 21:49 | 29.34610 | -89.31966 | 34082 ft | 368 kts | 309° |
| 2026-05-04 21:50 | 29.37926 | -89.36423 | 34079 ft | 368 kts | 309° |
| 2026-05-04 21:50 | 29.41235 | -89.40877 | 34091 ft | 368 kts | 309° |
| 2026-05-04 21:51 | 29.44510 | -89.45292 | 34088 ft | 367 kts | 309° |
| 2026-05-04 21:51 | 29.47817 | -89.49746 | 34087 ft | 367 kts | 309° |
| 2026-05-04 21:52 | 29.51125 | -89.54213 | 34086 ft | 367 kts | 309° |
| 2026-05-04 21:52 | 29.54429 | -89.58691 | 34121 ft | 367 kts | 309° |
| 2026-05-04 21:53 | 29.57692 | -89.63110 | 34096 ft | 365 kts | 309° |
| 2026-05-04 21:53 | 29.60957 | -89.67523 | 34093 ft | 365 kts | 309° |
| 2026-05-04 21:54 | 29.64237 | -89.71971 | 34089 ft | 365 kts | 309° |
| 2026-05-04 21:54 | 29.67516 | -89.76422 | 34088 ft | 365 kts | 309° |
| 2026-05-04 21:55 | 29.70788 | -89.80879 | 34080 ft | 365 kts | 309° |
| 2026-05-04 21:55 | 29.74039 | -89.85305 | 34080 ft | 364 kts | 309° |
| 2026-05-04 21:56 | 29.77308 | -89.89762 | 34078 ft | 364 kts | 309° |
| 2026-05-04 21:56 | 29.80573 | -89.94226 | 34081 ft | 365 kts | 309° |
| 2026-05-04 21:57 | 29.83843 | -89.98696 | 34110 ft | 365 kts | 309° |
| 2026-05-04 21:57 | 29.86816 | -90.03363 | 34094 ft | 364 kts | 304° |
| 2026-05-04 21:58 | 29.89620 | -90.08208 | 34095 ft | 364 kts | 303° |
| 2026-05-04 21:58 | 29.92423 | -90.13070 | 34084 ft | 364 kts | 303° |
| 2026-05-04 21:59 | 29.95222 | -90.17917 | 34082 ft | 363 kts | 304° |
| 2026-05-04 21:59 | 29.98025 | -90.22754 | 34081 ft | 363 kts | 304° |
| 2026-05-04 22:00 | 30.00804 | -90.27555 | 34079 ft | 363 kts | 304° |
| 2026-05-04 22:00 | 30.03608 | -90.32412 | 34078 ft | 363 kts | 303° |
| 2026-05-04 22:01 | 30.06414 | -90.37291 | 34081 ft | 363 kts | 303° |
| 2026-05-04 22:01 | 30.09179 | -90.42109 | 34057 ft | 363 kts | 303° |
| 2026-05-04 22:02 | 30.11962 | -90.46950 | 34097 ft | 363 kts | 303° |
| 2026-05-04 22:02 | 30.14746 | -90.51804 | 34087 ft | 362 kts | 303° |
| 2026-05-04 22:03 | 30.17524 | -90.56647 | 34081 ft | 361 kts | 303° |
| 2026-05-04 22:03 | 30.20295 | -90.61480 | 34077 ft | 361 kts | 303° |
| 2026-05-04 22:04 | 30.23063 | -90.66327 | 34074 ft | 361 kts | 303° |
| 2026-05-04 22:04 | 30.25810 | -90.71141 | 34071 ft | 361 kts | 303° |
| 2026-05-04 22:05 | 30.28573 | -90.75982 | 34063 ft | 361 kts | 303° |
| 2026-05-04 22:05 | 30.31334 | -90.80827 | 34051 ft | 360 kts | 303° |
| 2026-05-04 22:06 | 30.34083 | -90.85668 | 34050 ft | 360 kts | 303° |
| 2026-05-04 22:06 | 30.36835 | -90.90513 | 34050 ft | 360 kts | 303° |
| 2026-05-04 22:07 | 30.39574 | -90.95329 | 34081 ft | 360 kts | 303° |
| 2026-05-04 22:07 | 30.42324 | -91.00180 | 34071 ft | 360 kts | 303° |
| 2026-05-04 22:08 | 30.45068 | -91.05029 | 34062 ft | 359 kts | 303° |
| 2026-05-04 22:08 | 30.47810 | -91.09873 | 34057 ft | 359 kts | 303° |
| 2026-05-04 22:09 | 30.50525 | -91.14682 | 34048 ft | 359 kts | 303° |
| 2026-05-04 22:09 | 30.53258 | -91.19533 | 34048 ft | 359 kts | 303° |
| 2026-05-04 22:10 | 30.55993 | -91.24384 | 34045 ft | 359 kts | 303° |
| 2026-05-04 22:10 | 30.58727 | -91.29235 | 34045 ft | 359 kts | 303° |
| 2026-05-04 22:11 | 30.61454 | -91.34091 | 34041 ft | 359 kts | 303° |
| 2026-05-04 22:11 | 30.64164 | -91.38915 | 34038 ft | 359 kts | 303° |
| 2026-05-04 22:12 | 30.66881 | -91.43770 | 34036 ft | 359 kts | 303° |
| 2026-05-04 22:12 | 30.69599 | -91.48633 | 34035 ft | 359 kts | 303° |
| 2026-05-04 22:13 | 30.72325 | -91.53488 | 34018 ft | 359 kts | 303° |
| 2026-05-04 22:13 | 30.75028 | -91.58319 | 34018 ft | 359 kts | 303° |
| 2026-05-04 22:14 | 30.77743 | -91.63191 | 34019 ft | 359 kts | 302° |
| 2026-05-04 22:14 | 30.80453 | -91.68061 | 34019 ft | 359 kts | 303° |
| 2026-05-04 22:15 | 30.83170 | -91.72937 | 34020 ft | 359 kts | 303° |
| 2026-05-04 22:15 | 30.85886 | -91.77815 | 34021 ft | 359 kts | 303° |
| 2026-05-04 22:16 | 30.88584 | -91.82663 | 34022 ft | 359 kts | 302° |
| 2026-05-04 22:16 | 30.91293 | -91.87551 | 34022 ft | 359 kts | 302° |
| 2026-05-04 22:17 | 30.93992 | -91.92451 | 33999 ft | 359 kts | 302° |
| 2026-05-04 22:17 | 30.96700 | -91.97350 | 34033 ft | 360 kts | 302° |
| 2026-05-04 22:18 | 30.99388 | -92.02210 | 34031 ft | 359 kts | 302° |
| 2026-05-04 22:18 | 31.02098 | -92.07109 | 34029 ft | 359 kts | 302° |
| 2026-05-04 22:19 | 31.04806 | -92.12008 | 34029 ft | 359 kts | 302° |
| 2026-05-04 22:19 | 31.07509 | -92.16915 | 34028 ft | 359 kts | 302° |
| 2026-05-04 22:20 | 31.10187 | -92.21795 | 34027 ft | 359 kts | 302° |
| 2026-05-04 22:20 | 31.12880 | -92.26710 | 34024 ft | 359 kts | 302° |
| 2026-05-04 22:21 | 31.15570 | -92.31618 | 33997 ft | 359 kts | 302° |
| 2026-05-04 22:21 | 31.18266 | -92.36539 | 33982 ft | 360 kts | 302° |
| 2026-05-04 22:22 | 31.20964 | -92.41468 | 33985 ft | 360 kts | 302° |
| 2026-05-04 22:22 | 31.23642 | -92.46372 | 34023 ft | 360 kts | 302° |
| 2026-05-04 22:23 | 31.26145 | -92.51431 | 34013 ft | 360 kts | 294° |
| 2026-05-04 22:23 | 31.28007 | -92.56873 | 34009 ft | 361 kts | 294° |
| 2026-05-04 22:24 | 31.29855 | -92.62326 | 34007 ft | 361 kts | 294° |
| 2026-05-04 22:24 | 31.31691 | -92.67745 | 33981 ft | 361 kts | 294° |
| 2026-05-04 22:25 | 31.33543 | -92.73196 | 33985 ft | 361 kts | 294° |
| 2026-05-04 22:25 | 31.35406 | -92.78658 | 33990 ft | 362 kts | 294° |
| 2026-05-04 22:26 | 31.37264 | -92.84128 | 34002 ft | 362 kts | 294° |
| 2026-05-04 22:26 | 31.39108 | -92.89565 | 33992 ft | 362 kts | 294° |
| 2026-05-04 22:27 | 31.40960 | -92.95044 | 33989 ft | 362 kts | 294° |
| 2026-05-04 22:27 | 31.42804 | -93.00521 | 33991 ft | 362 kts | 294° |
| 2026-05-04 22:28 | 31.44653 | -93.06004 | 33960 ft | 362 kts | 294° |
| 2026-05-04 22:28 | 31.46496 | -93.11494 | 33966 ft | 362 kts | 293° |
| 2026-05-04 22:29 | 31.48333 | -93.16949 | 34014 ft | 362 kts | 294° |
| 2026-05-04 22:29 | 31.50177 | -93.22442 | 34003 ft | 362 kts | 293° |
| 2026-05-04 22:30 | 31.52035 | -93.28005 | 34000 ft | 362 kts | 293° |
| 2026-05-04 22:30 | 31.53869 | -93.33494 | 33997 ft | 361 kts | 293° |
| 2026-05-04 22:31 | 31.55681 | -93.38940 | 33984 ft | 361 kts | 293° |
| 2026-05-04 22:31 | 31.57510 | -93.44426 | 33984 ft | 361 kts | 293° |
| 2026-05-04 22:32 | 31.59334 | -93.49911 | 33978 ft | 361 kts | 293° |
| 2026-05-04 22:32 | 31.61111 | -93.55421 | 33975 ft | 362 kts | 291° |
| 2026-05-04 22:33 | 31.62575 | -93.61034 | 33974 ft | 363 kts | 289° |
| 2026-05-04 22:33 | 31.63937 | -93.66720 | 33973 ft | 363 kts | 289° |
| 2026-05-04 22:34 | 31.65337 | -93.72461 | 33971 ft | 363 kts | 289° |
| 2026-05-04 22:34 | 31.66759 | -93.78138 | 33971 ft | 363 kts | 289° |
| 2026-05-04 22:35 | 31.68182 | -93.83777 | 33942 ft | 362 kts | 290° |
| 2026-05-04 22:35 | 31.69607 | -93.89428 | 33952 ft | 362 kts | 290° |
| 2026-05-04 22:36 | 31.70787 | -93.94134 | 33959 ft | 362 kts | 289° |
| 2026-05-04 22:36 | 31.72191 | -93.99802 | 33961 ft | 362 kts | 289° |
| 2026-05-04 22:37 | 31.73597 | -94.05475 | 34007 ft | 361 kts | 289° |
| 2026-05-04 22:37 | 31.75220 | -94.12003 | 33964 ft | 358 kts | 289° |
| 2026-05-04 22:38 | 31.76377 | -94.16679 | 33961 ft | 359 kts | 289° |
| 2026-05-04 22:38 | 31.77763 | -94.22306 | 33938 ft | 359 kts | 289° |
| 2026-05-04 22:39 | 31.79153 | -94.27951 | 33933 ft | 359 kts | 289° |
| 2026-05-04 22:39 | 31.80769 | -94.34508 | 33941 ft | 360 kts | 289° |
| 2026-05-04 22:40 | 31.81936 | -94.39240 | 33945 ft | 360 kts | 289° |
| 2026-05-04 22:40 | 31.83303 | -94.44813 | 33946 ft | 360 kts | 289° |
| 2026-05-04 22:41 | 31.84684 | -94.50464 | 33948 ft | 360 kts | 289° |
| 2026-05-04 22:41 | 31.86066 | -94.56114 | 33950 ft | 360 kts | 289° |
| 2026-05-04 22:42 | 31.87451 | -94.61767 | 33942 ft | 359 kts | 289° |
| 2026-05-04 22:42 | 31.88824 | -94.67424 | 33942 ft | 359 kts | 289° |
| 2026-05-04 22:43 | 31.90180 | -94.73032 | 33940 ft | 359 kts | 289° |
| 2026-05-04 22:43 | 31.91550 | -94.78685 | 33940 ft | 359 kts | 289° |
| 2026-05-04 22:44 | 31.92917 | -94.84343 | 33941 ft | 359 kts | 289° |
| 2026-05-04 22:44 | 31.94278 | -94.89979 | 33942 ft | 359 kts | 289° |
| 2026-05-04 22:45 | 31.95657 | -94.95690 | 33925 ft | 359 kts | 289° |
| 2026-05-04 22:45 | 31.97687 | -95.04178 | 33942 ft | 359 kts | 289° |
| 2026-05-04 22:46 | 31.99032 | -95.09794 | 33931 ft | 358 kts | 289° |
| 2026-05-04 22:46 | 32.00376 | -95.15440 | 33923 ft | 358 kts | 289° |
| 2026-05-04 22:47 | 32.01718 | -95.21088 | 33919 ft | 358 kts | 289° |
| 2026-05-04 22:47 | 32.03069 | -95.26744 | 33919 ft | 357 kts | 289° |
| 2026-05-04 22:48 | 32.04413 | -95.32370 | 33922 ft | 358 kts | 289° |
| 2026-05-04 22:48 | 32.05740 | -95.37975 | 33903 ft | 358 kts | 288° |
| 2026-05-04 22:49 | 32.07064 | -95.43630 | 33910 ft | 358 kts | 288° |
| 2026-05-04 22:49 | 32.08401 | -95.49284 | 33917 ft | 358 kts | 288° |
| 2026-05-04 22:50 | 32.09740 | -95.54939 | 33923 ft | 358 kts | 288° |
| 2026-05-04 22:50 | 32.11065 | -95.60603 | 33925 ft | 358 kts | 288° |
| 2026-05-04 22:51 | 32.12382 | -95.66227 | 33920 ft | 358 kts | 288° |
| 2026-05-04 22:51 | 32.13705 | -95.71896 | 33912 ft | 358 kts | 288° |
| 2026-05-04 22:52 | 32.15025 | -95.77566 | 33889 ft | 356 kts | 288° |
| 2026-05-04 22:52 | 32.15680 | -95.80384 | 33066 ft | 358 kts | 288° |
| 2026-05-04 22:52 | 32.16342 | -95.83226 | 32192 ft | 361 kts | 288° |
| 2026-05-04 22:53 | 32.17006 | -95.86081 | 31481 ft | 361 kts | 287° |
| 2026-05-04 22:53 | 32.17672 | -95.88943 | 30753 ft | 361 kts | 287° |
| 2026-05-04 22:53 | 32.18326 | -95.91766 | 30005 ft | 363 kts | 287° |
| 2026-05-04 22:53 | 32.18988 | -95.94630 | 29583 ft | 361 kts | 287° |
| 2026-05-04 22:54 | 32.19652 | -95.97500 | 29299 ft | 363 kts | 287° |
| 2026-05-04 22:54 | 32.20317 | -96.00374 | 28790 ft | 362 kts | 287° |
| 2026-05-04 22:54 | 32.20975 | -96.03230 | 28280 ft | 359 kts | 287° |
| 2026-05-04 22:54 | 32.21629 | -96.06059 | 27752 ft | 357 kts | 287° |
| 2026-05-04 22:55 | 32.22280 | -96.08881 | 27219 ft | 355 kts | 287° |
| 2026-05-04 22:55 | 32.22925 | -96.11680 | 26724 ft | 352 kts | 287° |
| 2026-05-04 22:55 | 32.23556 | -96.14420 | 26227 ft | 349 kts | 287° |
| 2026-05-04 22:55 | 32.24191 | -96.17179 | 25721 ft | 347 kts | 287° |
| 2026-05-04 22:56 | 32.24820 | -96.19920 | 25223 ft | 345 kts | 287° |
| 2026-05-04 22:56 | 32.25441 | -96.22639 | 24709 ft | 342 kts | 287° |
| 2026-05-04 22:56 | 32.26056 | -96.25349 | 24219 ft | 340 kts | 287° |
| 2026-05-04 22:56 | 32.26667 | -96.28039 | 23727 ft | 338 kts | 287° |
| 2026-05-04 22:57 | 32.27357 | -96.30681 | 23214 ft | 335 kts | 293° |
| 2026-05-04 22:57 | 32.28470 | -96.33088 | 22682 ft | 335 kts | 303° |
| 2026-05-04 22:57 | 32.29994 | -96.35178 | 22116 ft | 339 kts | 312° |
| 2026-05-04 22:57 | 32.31666 | -96.37090 | 21563 ft | 339 kts | 312° |
| 2026-05-04 22:58 | 32.33356 | -96.39034 | 21000 ft | 339 kts | 312° |
| 2026-05-04 22:58 | 32.35048 | -96.40980 | 20432 ft | 339 kts | 312° |
| 2026-05-04 22:58 | 32.36740 | -96.42923 | 19873 ft | 340 kts | 313° |
| 2026-05-04 22:58 | 32.38436 | -96.44871 | 19317 ft | 340 kts | 313° |
| 2026-05-04 22:59 | 32.40135 | -96.46823 | 18747 ft | 341 kts | 313° |
| 2026-05-04 22:59 | 32.41840 | -96.48781 | 18198 ft | 343 kts | 313° |
| 2026-05-04 22:59 | 32.43551 | -96.50749 | 17570 ft | 343 kts | 313° |
| 2026-05-04 22:59 | 32.45233 | -96.52684 | 17111 ft | 340 kts | 313° |
| 2026-05-04 23:00 | 32.46906 | -96.54609 | 16889 ft | 329 kts | 313° |
| 2026-05-04 23:00 | 32.48523 | -96.56469 | 16641 ft | 320 kts | 313° |
| 2026-05-04 23:00 | 32.50100 | -96.58286 | 16391 ft | 315 kts | 313° |
| 2026-05-04 23:00 | 32.51671 | -96.60094 | 16145 ft | 314 kts | 313° |
| 2026-05-04 23:01 | 32.53231 | -96.61886 | 15784 ft | 312 kts | 313° |
| 2026-05-04 23:01 | 32.54789 | -96.63672 | 15410 ft | 311 kts | 313° |
| 2026-05-04 23:01 | 32.56342 | -96.65449 | 15018 ft | 310 kts | 313° |
| 2026-05-04 23:01 | 32.57897 | -96.67224 | 14421 ft | 314 kts | 313° |
| 2026-05-04 23:02 | 32.59463 | -96.68994 | 13989 ft | 313 kts | 313° |
| 2026-05-04 23:02 | 32.61030 | -96.70752 | 13731 ft | 305 kts | 313° |
| 2026-05-04 23:02 | 32.62546 | -96.72448 | 13614 ft | 294 kts | 313° |
| 2026-05-04 23:02 | 32.64004 | -96.74084 | 13484 ft | 284 kts | 313° |
| 2026-05-04 23:03 | 32.65413 | -96.75671 | 13283 ft | 276 kts | 313° |
| 2026-05-04 23:03 | 32.66798 | -96.77233 | 12971 ft | 274 kts | 313° |
| 2026-05-04 23:03 | 32.68161 | -96.78774 | 12767 ft | 268 kts | 312° |
| 2026-05-04 23:03 | 32.69512 | -96.80309 | 12660 ft | 268 kts | 312° |
| 2026-05-04 23:04 | 32.70856 | -96.81843 | 12572 ft | 269 kts | 313° |
| 2026-05-04 23:04 | 32.72205 | -96.83384 | 12459 ft | 269 kts | 313° |
| 2026-05-04 23:04 | 32.73535 | -96.84900 | 12358 ft | 269 kts | 312° |
| 2026-05-04 23:04 | 32.74886 | -96.86434 | 12258 ft | 269 kts | 314° |
| 2026-05-04 23:05 | 32.76479 | -96.87622 | 12157 ft | 277 kts | 335° |
| 2026-05-04 23:05 | 32.78405 | -96.88016 | 11993 ft | 285 kts | 349° |
| 2026-05-04 23:05 | 32.80383 | -96.88186 | 11744 ft | 284 kts | 350° |
| 2026-05-04 23:05 | 32.82357 | -96.88334 | 11500 ft | 284 kts | 351° |
| 2026-05-04 23:06 | 32.84329 | -96.88475 | 11258 ft | 284 kts | 351° |
| 2026-05-04 23:06 | 32.86297 | -96.88619 | 11017 ft | 283 kts | 351° |
| 2026-05-04 23:06 | 32.88260 | -96.88767 | 10778 ft | 283 kts | 351° |
| 2026-05-04 23:06 | 32.90191 | -96.88916 | 10543 ft | 282 kts | 351° |
| 2026-05-04 23:07 | 32.92147 | -96.89067 | 10320 ft | 281 kts | 351° |
| 2026-05-04 23:07 | 32.94100 | -96.89220 | 10085 ft | 281 kts | 350° |
| 2026-05-04 23:07 | 32.96050 | -96.89373 | 9863 ft | 280 kts | 350° |
| 2026-05-04 23:07 | 32.97989 | -96.89525 | 9759 ft | 280 kts | 351° |
| 2026-05-04 23:08 | 32.99936 | -96.89678 | 9639 ft | 280 kts | 350° |
| 2026-05-04 23:08 | 33.01880 | -96.89830 | 9511 ft | 280 kts | 350° |
| 2026-05-04 23:08 | 33.03821 | -96.89983 | 9384 ft | 280 kts | 351° |
| 2026-05-04 23:08 | 33.05762 | -96.90137 | 9227 ft | 280 kts | 351° |
| 2026-05-04 23:09 | 33.07704 | -96.90293 | 9094 ft | 280 kts | 350° |
| 2026-05-04 23:09 | 33.09644 | -96.90448 | 8967 ft | 279 kts | 351° |
| 2026-05-04 23:09 | 33.11578 | -96.90603 | 8837 ft | 277 kts | 350° |
| 2026-05-04 23:09 | 33.13452 | -96.90749 | 8721 ft | 269 kts | 351° |
| 2026-05-04 23:10 | 33.15292 | -96.90888 | 8587 ft | 261 kts | 350° |
| 2026-05-04 23:10 | 33.17079 | -96.91026 | 8470 ft | 253 kts | 351° |
| 2026-05-04 23:10 | 33.18810 | -96.91159 | 8340 ft | 245 kts | 351° |
| 2026-05-04 23:10 | 33.20444 | -96.91484 | 8216 ft | 230 kts | 327° |
| 2026-05-04 23:11 | 33.21593 | -96.92672 | 8107 ft | 216 kts | 295° |
| 2026-05-04 23:11 | 33.21967 | -96.94359 | 7966 ft | 211 kts | 265° |
| 2026-05-04 23:11 | 33.21507 | -96.96004 | 7859 ft | 212 kts | 239° |
| 2026-05-04 23:11 | 33.20700 | -96.97474 | 7736 ft | 213 kts | 240° |
| 2026-05-04 23:12 | 33.19912 | -96.98956 | 7614 ft | 214 kts | 240° |
| 2026-05-04 23:12 | 33.19124 | -97.00453 | 7494 ft | 213 kts | 240° |
| 2026-05-04 23:12 | 33.18336 | -97.01949 | 7373 ft | 212 kts | 240° |
| 2026-05-04 23:12 | 33.17549 | -97.03440 | 7252 ft | 212 kts | 240° |
| 2026-05-04 23:13 | 33.16767 | -97.04919 | 7134 ft | 210 kts | 239° |
| 2026-05-04 23:13 | 33.15987 | -97.06396 | 7016 ft | 211 kts | 240° |
| 2026-05-04 23:13 | 33.15204 | -97.07875 | 6898 ft | 212 kts | 239° |
| 2026-05-04 23:13 | 33.14416 | -97.09356 | 6784 ft | 210 kts | 239° |
| 2026-05-04 23:14 | 33.13644 | -97.10811 | 6560 ft | 212 kts | 239° |
| 2026-05-04 23:14 | 33.12851 | -97.12308 | 6192 ft | 215 kts | 239° |
| 2026-05-04 23:14 | 33.12041 | -97.13834 | 5764 ft | 221 kts | 238° |
| 2026-05-04 23:14 | 33.11208 | -97.15400 | 5306 ft | 227 kts | 238° |
| 2026-05-04 23:15 | 33.10352 | -97.17011 | 4862 ft | 233 kts | 237° |
| 2026-05-04 23:15 | 33.09473 | -97.18661 | 4385 ft | 239 kts | 236° |
| 2026-05-04 23:15 | 33.08566 | -97.20363 | 3887 ft | 247 kts | 235° |
| 2026-05-04 23:15 | 33.07504 | -97.21924 | 3717 ft | 233 kts | 216° |
| 2026-05-04 23:16 | 33.06103 | -97.22612 | 3558 ft | 211 kts | 188° |
| 2026-05-04 23:16 | 33.04727 | -97.22338 | 3378 ft | 196 kts | 160° |
| 2026-05-04 23:16 | 33.03679 | -97.21433 | 3256 ft | 181 kts | 146° |
| 2026-05-04 23:16 | 33.02785 | -97.20503 | 3163 ft | 161 kts | 146° |
| 2026-05-04 23:17 | 33.01977 | -97.19668 | 3095 ft | 148 kts | 147° |
| 2026-05-04 23:17 | 33.01223 | -97.18892 | 3024 ft | 141 kts | 146° |
| 2026-05-04 23:17 | 33.00487 | -97.18134 | 2951 ft | 139 kts | 147° |
| 2026-05-04 23:17 | 32.99762 | -97.17387 | 2818 ft | 136 kts | 147° |
| 2026-05-04 23:18 | 32.99054 | -97.16657 | 2667 ft | 134 kts | 147° |
| 2026-05-04 23:18 | 32.98352 | -97.15934 | 2500 ft | 133 kts | 147° |
| 2026-05-04 23:18 | 32.97652 | -97.15212 | 2340 ft | 133 kts | 146° |
| 2026-05-04 23:18 | 32.96952 | -97.14491 | 2163 ft | 133 kts | 146° |
| 2026-05-04 23:19 | 32.96276 | -97.13793 | 2005 ft | 130 kts | 146° |
| 2026-05-04 23:19 | 32.95597 | -97.13094 | 1840 ft | 129 kts | 146° |
| 2026-05-04 23:19 | 32.94921 | -97.12398 | 1666 ft | 129 kts | 147° |
| 2026-05-04 23:19 | 32.94247 | -97.11703 | 1490 ft | 128 kts | 145° |
| 2026-05-04 23:20 | 32.93562 | -97.10998 | 1340 ft | 132 kts | 143° |
| 2026-05-04 23:20 | 32.92857 | -97.10272 | 1160 ft | 138 kts | 143° |
| 2026-05-04 23:20 | 32.92132 | -97.09527 | 967 ft | 138 kts | 143° |
| 2026-05-04 23:20 | 32.91430 | -97.08787 | 800 ft | 132 kts | 144° |
| 2026-05-04 23:21 | 32.90738 | -97.08093 | 606 ft | 124 kts | 142° |
| 2026-05-04 23:21 | 32.90247 | -97.07589 | 597 ft | 48 kts | 139° |
| 2026-05-04 23:21 | 32.90184 | -97.07450 | 596 ft | 7 kts | 48° |
| 2026-05-04 23:21 | 32.90203 | -97.07432 | 596 ft | 0 kts | 49° |
| 2026-05-04 23:22 | 32.90207 | -97.07426 | 595 ft | 3 kts | 49° |
| 2026-05-04 23:22 | 32.90228 | -97.07398 | 595 ft | 7 kts | 49° |
| 2026-05-04 23:22 | 32.90259 | -97.07344 | 594 ft | 9 kts | 84° |
| 2026-05-04 23:23 | 32.90210 | -97.07287 | 592 ft | 12 kts | 139° |
| 2026-05-04 23:23 | 32.90142 | -97.07215 | 592 ft | 14 kts | 142° |
| 2026-05-04 23:23 | 32.90067 | -97.07140 | 594 ft | 15 kts | 138° |
| 2026-05-04 23:23 | 32.89986 | -97.07055 | 593 ft | 17 kts | 140° |
| 2026-05-04 23:24 | 32.89903 | -97.06970 | 595 ft | 13 kts | 139° |
| 2026-05-04 23:24 | 32.89830 | -97.06895 | 596 ft | 14 kts | 139° |
| 2026-05-04 23:24 | 32.89747 | -97.06809 | 594 ft | 17 kts | 140° |
| 2026-05-04 23:24 | 32.89651 | -97.06713 | 595 ft | 19 kts | 139° |
| 2026-05-04 23:25 | 32.89598 | -97.06656 | 593 ft | 11 kts | 137° |
| 2026-05-04 23:25 | 32.89528 | -97.06581 | 590 ft | 16 kts | 138° |
| 2026-05-04 23:25 | 32.89481 | -97.06449 | 590 ft | 18 kts | 109° |
| 2026-05-04 23:25 | 32.89448 | -97.06347 | 591 ft | 13 kts | 123° |
| 2026-05-04 23:26 | 32.89380 | -97.06271 | 591 ft | 14 kts | 139° |
| 2026-05-04 23:26 | 32.89321 | -97.06211 | 591 ft | 8 kts | 138° |
| 2026-05-04 23:26 | 32.89278 | -97.06166 | 591 ft | 9 kts | 139° |
| 2026-05-04 23:26 | 32.89243 | -97.06129 | 592 ft | 7 kts | 139° |
| 2026-05-04 23:27 | 32.89206 | -97.06091 | 592 ft | 8 kts | 139° |
| 2026-05-04 23:27 | 32.89191 | -97.06076 | 594 ft | 0 kts | 139° |
| 2026-05-04 23:27 | 32.89189 | -97.06074 | 594 ft | 7 kts | 139° |
| 2026-05-04 23:27 | 32.89114 | -97.05997 | 595 ft | 2 kts | 139° |
| 2026-05-04 23:28 | 32.89112 | -97.05994 | 595 ft | 0 kts | 139° |
| 2026-05-04 23:28 | 32.89106 | -97.05988 | 595 ft | 3 kts | 139° |
| 2026-05-04 23:29 | 32.89063 | -97.05944 | 595 ft | 11 kts | 139° |
| 2026-05-04 23:29 | 32.89002 | -97.05881 | 598 ft | 11 kts | 139° |
| 2026-05-04 23:29 | 32.88939 | -97.05816 | 598 ft | 13 kts | 140° |
| 2026-05-04 23:29 | 32.88864 | -97.05740 | 598 ft | 15 kts | 138° |
| 2026-05-04 23:30 | 32.88783 | -97.05654 | 598 ft | 17 kts | 135° |
| 2026-05-04 23:30 | 32.88714 | -97.05555 | 595 ft | 15 kts | 124° |
| 2026-05-04 23:30 | 32.88660 | -97.05440 | 594 ft | 17 kts | 115° |
| 2026-05-04 23:30 | 32.88619 | -97.05299 | 590 ft | 21 kts | 107° |
| 2026-05-04 23:31 | 32.88607 | -97.05139 | 587 ft | 18 kts | 92° |
| 2026-05-04 23:31 | 32.88609 | -97.04986 | 589 ft | 19 kts | 91° |
| 2026-05-04 23:31 | 32.88607 | -97.04816 | 588 ft | 22 kts | 90° |
| 2026-05-04 23:31 | 32.88606 | -97.04649 | 588 ft | 18 kts | 90° |
| 2026-05-04 23:32 | 32.88606 | -97.04502 | 590 ft | 19 kts | 90° |
| 2026-05-04 23:32 | 32.88605 | -97.04351 | 597 ft | 17 kts | 90° |
| 2026-05-04 23:32 | 32.88604 | -97.04210 | 601 ft | 17 kts | 91° |
| 2026-05-04 23:32 | 32.88605 | -97.04071 | 601 ft | 14 kts | 90° |
| 2026-05-04 23:33 | 32.88604 | -97.03947 | 601 ft | 16 kts | 90° |
| 2026-05-04 23:33 | 32.88603 | -97.03814 | 595 ft | 17 kts | 90° |
| 2026-05-04 23:33 | 32.88602 | -97.03652 | 585 ft | 15 kts | 90° |
| 2026-05-04 23:33 | 32.88602 | -97.03633 | 584 ft | 0 kts | 90° |
| 2026-05-04 23:34 | 32.88602 | -97.03632 | 584 ft | 1 kts | 90° |
| 2026-05-04 23:34 | 32.88602 | -97.03600 | 584 ft | 5 kts | 90° |
| 2026-05-04 23:35 | 32.88620 | -97.03564 | 584 ft | 6 kts | 21° |
| 2026-05-04 23:35 | 32.88670 | -97.03562 | 584 ft | 9 kts | 359° |
| 2026-05-04 23:35 | 32.88734 | -97.03590 | 584 ft | 11 kts | 348° |
| 2026-05-04 23:35 | 32.88803 | -97.03547 | 584 ft | 9 kts | 24° |
| 2026-05-04 23:36 | 32.88833 | -97.03574 | 584 ft | 5 kts | 322° |
| 2026-05-04 23:36 | 32.88846 | -97.03585 | 584 ft | 0 kts | 322° |
| 2026-05-04 23:36 | 32.88849 | -97.03588 | 584 ft | 0 kts | 322° |